ePrivacy and GPDR Cookie Consent by Cookie Consent
EmailTwitter


Surface observations / Canada / CYYZ (71624)

Regions: Quebec | Canada | USA | Europe | France | UK | Elsewhere
Station
Display
Info & Location for CYYZ (71624) | Help decoding METAR

Weather Conditions observed on 2022/08/19 at 21:09 UTC at TORONTO A, ON (CYYZ)

Sky conditions: partly cloudy.

Obstruction(s) to Vision: showers in the vicinity.

Temperature: 24.0 Celsius.

Dewpoint: 17.0 Celsius.

Relative Humidity: 65%

Humidex 29.

Winds: East at 11 km/h or 6 knots.

Mean Sea level Pressure: 101.63 kilopascals.

Altimeter Setting (QNH): 101.62 kilopascals or 30.01 inches of mercury.

Horizontal visibility: 15.00 statute miles or 24.00 kilometers.

Height of the Ceiling: 3048 metres ( 10000 feet ).

Coded METAR:

CYYZ 192109Z 10006KT 090V160 15SM VCSH SCT045 BKN100 24/17 A3001 RMK CU3AC3

SLP163 DENSITY ALT 1700FT=